Time;durP1;ratioP1;P1;durP2;ratioP2;P2;SDS_P1;SDS_P2;PMS_P1;PMS_P2;Temp;Humidity;BMP_temperature;BMP_pressure;BME280_temperature;BME280_humidity;BME280_pressure;Samples;Min_cycle;Max_cycle;Signal;HPM_P1;HPM_P2
2021/03/23 00:01:09;;;;;;;;;;;;;;;0.32;64.22;99484.75;1763651;81;20384;-71
2021/03/23 00:03:41;;;;;;;;;;;;;;;0.30;64.26;99490.48;1768730;81;20219;-71
2021/03/23 00:06:14;;;;;;;;;;;;;;;0.27;64.11;99489.33;1767475;81;20485;-71
2021/03/23 00:08:44;;;;;;;;;;;;;;;0.24;64.06;99486.89;1771841;81;20215;-71
2021/03/23 00:11:24;;;;;;;;;;;;;;;0.23;64.02;99484.76;1773825;81;21368;-71
2021/03/23 00:13:54;;;;;;;;;;;;;;;0.20;63.93;99491.42;1763533;80;20231;-70
2021/03/23 00:16:23;;;;;;;;;;;;;;;0.20;64.00;99493.17;1758740;80;20239;-70
2021/03/23 00:18:51;;;;;;;;;;;;;;;0.18;63.91;99491.09;1769314;81;20513;-71
2021/03/23 00:21:19;;;;;;;;;;;;;;;0.14;63.76;99494.78;1728556;81;20556;-72
2021/03/23 00:23:47;;;;;;;;;;;;;;;0.12;63.78;99489.66;1727891;83;22872;-70
2021/03/23 00:26:15;;;;;;;;;;;;;;;0.10;63.66;99493.27;1763876;81;20680;-71
2021/03/23 00:28:48;;;;;;;;;;;;;;;0.08;63.75;99492.48;1758234;81;20223;-70
2021/03/23 00:31:17;;;;;;;;;;;;;;;0.04;63.82;99489.67;1761226;81;20465;-71
2021/03/23 00:33:46;;;;;;;;;;;;;;;0.02;63.90;99494.10;1770966;81;20227;-71
2021/03/23 00:36:17;;;;;;;;;;;;;;;0.01;64.02;99495.02;1778095;79;22063;-71
2021/03/23 00:38:44;;;;;;;;;;;;;;;-0.02;64.14;99496.83;1808668;79;20236;-71
2021/03/23 00:41:12;;;;;;;;;;;;;;;-0.03;64.18;99492.56;1784951;79;20409;-71
2021/03/23 00:43:40;;;;;;;;;;;;;;;-0.04;64.19;99486.98;1778064;79;20469;-71
2021/03/23 00:46:08;;;;;;;;;;;;;;;-0.06;64.21;99494.02;1783095;80;20260;-71
2021/03/23 00:48:35;;;;;;;;;;;;;;;-0.07;64.03;99496.70;1791425;80;23367;-71
2021/03/23 00:51:02;;;;;;;;;;;;;;;-0.10;64.13;99498.13;1786837;80;20222;-71
2021/03/23 00:53:30;;;;;;;;;;;;;;;-0.13;64.12;99500.42;1792092;80;20367;-71
2021/03/23 00:56:00;;;;;;;;;;;;;;;-0.16;64.04;99499.75;1792096;80;20894;-70
2021/03/23 00:58:26;;;;;;;;;;;;;;;-0.20;64.01;99500.34;1792180;80;20238;-71
2021/03/23 01:00:53;;;;;;;;;;;;;;;-0.21;64.02;99505.15;1792012;80;21968;-71
2021/03/23 01:03:21;;;;;;;;;;;;;;;-0.22;64.00;99511.72;1792017;80;20808;-71
2021/03/23 01:05:50;;;;;;;;;;;;;;;-0.24;64.08;99507.91;1790053;80;20270;-71
2021/03/23 01:08:17;;;;;;;;;;;;;;;-0.22;64.09;99509.12;1788313;79;20278;-71
2021/03/23 01:10:44;;;;;;;;;;;;;;;-0.22;63.93;99507.82;1743129;80;20268;-73
2021/03/23 01:13:12;;;;;;;;;;;;;;;-0.24;63.83;99509.20;1778181;80;22885;-73
2021/03/23 01:15:40;;;;;;;;;;;;;;;-0.25;63.78;99509.28;1791726;80;20247;-73
2021/03/23 01:18:08;;;;;;;;;;;;;;;-0.26;63.87;99510.20;1773847;80;20288;-73
2021/03/23 01:20:36;;;;;;;;;;;;;;;-0.27;63.96;99511.12;1790196;80;21343;-72
2021/03/23 01:23:03;;;;;;;;;;;;;;;-0.30;63.97;99516.81;1792142;80;20242;-72
2021/03/23 01:25:30;;;;;;;;;;;;;;;-0.30;64.08;99515.97;1792090;80;22507;-70
2021/03/23 01:27:57;;;;;;;;;;;;;;;-0.31;64.11;99515.59;1790896;80;20504;-69
2021/03/23 01:30:26;;;;;;;;;;;;;;;-0.31;64.20;99508.65;1773743;80;20250;-69
2021/03/23 01:32:53;;;;;;;;;;;;;;;-0.30;64.29;99510.78;1786329;80;21353;-69
2021/03/23 01:35:22;;;;;;;;;;;;;;;-0.32;64.39;99514.76;1791823;80;20242;-69
2021/03/23 01:37:49;;;;;;;;;;;;;;;-0.34;64.52;99515.75;1777125;80;22044;-70
2021/03/23 01:40:18;;;;;;;;;;;;;;;-0.36;64.64;99509.80;1751853;80;21323;-72
2021/03/23 01:42:47;;;;;;;;;;;;;;;-0.38;64.75;99516.83;1795468;80;20241;-69
2021/03/23 01:45:24;;;;;;;;;;;;;;;-0.40;64.81;99514.28;1792960;80;20256;-70
2021/03/23 01:47:52;;;;;;;;;;;;;;;-0.41;65.07;99519.09;1764615;80;20220;-69
2021/03/23 01:50:19;;;;;;;;;;;;;;;-0.40;65.08;99518.63;1772845;80;22147;-69
2021/03/23 01:52:49;;;;;;;;;;;;;;;-0.41;65.20;99513.06;1763084;80;21301;-70
2021/03/23 01:55:16;;;;;;;;;;;;;;;-0.39;65.29;99519.85;1746750;81;20518;-69
2021/03/23 01:57:45;;;;;;;;;;;;;;;-0.41;65.30;99515.20;1762496;80;20223;-70
2021/03/23 02:00:12;;;;;;;;;;;;;;;-0.41;65.30;99519.55;1742929;80;20236;-70
2021/03/23 02:02:40;;;;;;;;;;;;;;;-0.41;65.25;99515.66;1765011;80;22078;-70
2021/03/23 02:05:13;;;;;;;;;;;;;;;-0.41;65.21;99516.50;1775013;80;20307;-70
2021/03/23 02:07:41;;;;;;;;;;;;;;;-0.38;65.05;99512.94;1778901;80;20221;-70
2021/03/23 02:10:08;;;;;;;;;;;;;;;-0.39;64.79;99516.42;1765925;80;21188;-70
2021/03/23 02:12:37;;;;;;;;;;;;;;;-0.42;64.87;99513.52;1755354;81;20494;-70
2021/03/23 02:15:07;;;;;;;;;;;;;;;-0.41;64.85;99511.77;1759172;80;21897;-70
2021/03/23 02:17:36;;;;;;;;;;;;;;;-0.42;64.80;99512.69;1783611;80;20437;-70
2021/03/23 02:20:07;;;;;;;;;;;;;;;-0.41;64.60;99512.61;1771357;80;20222;-70
2021/03/23 02:22:42;;;;;;;;;;;;;;;-0.41;64.65;99513.06;1776574;80;20474;-70
2021/03/23 02:25:16;;;;;;;;;;;;;;;-0.41;64.55;99512.61;1763611;81;20267;-70
2021/03/23 02:27:43;;;;;;;;;;;;;;;-0.41;64.43;99510.02;1757690;81;22052;-72
2021/03/23 02:30:17;;;;;;;;;;;;;;;-0.41;64.44;99515.20;1757624;81;20352;-70
2021/03/23 02:32:44;;;;;;;;;;;;;;;-0.42;64.44;99517.88;1733782;82;20223;-70
2021/03/23 02:35:13;;;;;;;;;;;;;;;-0.42;64.43;99515.28;1746337;80;21138;-70
2021/03/23 02:37:40;;;;;;;;;;;;;;;-0.42;64.37;99519.17;1774099;80;20466;-70
2021/03/23 02:40:08;;;;;;;;;;;;;;;-0.43;64.29;99523.98;1754192;81;22368;-70
2021/03/23 02:42:35;;;;;;;;;;;;;;;-0.45;64.34;99522.76;1786913;80;21345;-72
2021/03/23 02:45:03;;;;;;;;;;;;;;;-0.46;64.32;99522.38;1791351;80;20218;-72
2021/03/23 02:47:31;;;;;;;;;;;;;;;-0.46;64.32;99526.27;1761470;80;20475;-71
2021/03/23 02:49:59;;;;;;;;;;;;;;;-0.46;64.38;99524.97;1777955;80;20214;-72
2021/03/23 02:52:26;;;;;;;;;;;;;;;-0.50;64.45;99526.47;1779496;80;21593;-71
2021/03/23 02:54:53;;;;;;;;;;;;;;;-0.52;64.51;99528.30;1769235;80;20766;-71
2021/03/23 02:57:20;;;;;;;;;;;;;;;-0.53;64.56;99526.63;1791710;79;20243;-71
2021/03/23 02:59:49;;;;;;;;;;;;;;;-0.55;64.62;99528.00;1767748;81;20442;-71
2021/03/23 03:02:16;;;;;;;;;;;;;;;-0.57;64.66;99532.43;1773034;79;20222;-71
2021/03/23 03:04:44;;;;;;;;;;;;;;;-0.60;64.55;99526.91;1776970;80;22558;-71
2021/03/23 03:07:11;;;;;;;;;;;;;;;-0.60;64.60;99518.29;1787242;79;21563;-72
2021/03/23 03:09:38;;;;;;;;;;;;;;;-0.63;64.62;99520.58;1769027;81;20473;-71
2021/03/23 03:12:08;;;;;;;;;;;;;;;-0.65;64.62;99519.81;1758946;80;20720;-71
2021/03/23 03:14:35;;;;;;;;;;;;;;;-0.66;64.62;99523.33;1803175;79;20208;-71
2021/03/23 03:17:02;;;;;;;;;;;;;;;-0.67;64.62;99516.46;1784459;79;22345;-71
2021/03/23 03:19:29;;;;;;;;;;;;;;;-0.68;64.62;99516.51;1765973;80;20798;-71
2021/03/23 03:21:57;;;;;;;;;;;;;;;-0.71;64.66;99513.61;1765131;80;20211;-72
2021/03/23 03:24:24;;;;;;;;;;;;;;;-0.73;64.73;99514.14;1755281;81;20978;-71
2021/03/23 03:26:51;;;;;;;;;;;;;;;-0.72;64.76;99514.98;1785357;80;20226;-71
2021/03/23 03:29:18;;;;;;;;;;;;;;;-0.74;64.71;99521.55;1783703;80;22911;-71
2021/03/23 03:31:46;;;;;;;;;;;;;;;-0.76;64.57;99523.83;1786597;80;20324;-71
2021/03/23 03:34:14;;;;;;;;;;;;;;;-0.80;64.43;99527.00;1791780;80;20250;-71
2021/03/23 03:36:41;;;;;;;;;;;;;;;-0.81;64.40;99529.22;1773152;80;21336;-72
2021/03/23 03:39:09;;;;;;;;;;;;;;;-0.81;64.39;99525.78;1716897;81;20222;-71
2021/03/23 03:41:36;;;;;;;;;;;;;;;-0.81;64.36;99526.63;1719422;82;22505;-71
2021/03/23 03:44:05;;;;;;;;;;;;;;;-0.83;63.91;99531.50;1725064;81;20813;-71
2021/03/23 03:46:33;;;;;;;;;;;;;;;-0.86;63.99;99528.60;1755660;81;20218;-72
2021/03/23 03:49:00;;;;;;;;;;;;;;;-0.86;63.99;99527.31;1729786;81;20763;-73
2021/03/23 03:51:27;;;;;;;;;;;;;;;-0.89;63.95;99524.84;1731067;81;20225;-71
2021/03/23 03:53:55;;;;;;;;;;;;;;;-0.92;63.49;99531.01;1741375;81;22846;-72
2021/03/23 03:56:22;;;;;;;;;;;;;;;-0.96;63.32;99532.53;1755311;81;20820;-71
2021/03/23 03:58:50;;;;;;;;;;;;;;;-1.00;63.19;99542.63;1743775;81;20502;-71
2021/03/23 04:01:18;;;;;;;;;;;;;;;-1.03;63.19;99541.03;1741372;81;20317;-70
2021/03/23 04:03:45;;;;;;;;;;;;;;;-1.05;62.99;99538.97;1757408;81;20388;-71
2021/03/23 04:06:13;;;;;;;;;;;;;;;-1.07;62.86;99533.45;1753895;81;22331;-70
2021/03/23 04:08:41;;;;;;;;;;;;;;;-1.09;62.78;99539.16;1757866;81;20828;-71
2021/03/23 04:11:10;;;;;;;;;;;;;;;-1.10;62.75;99536.19;1737722;81;20277;-70
2021/03/23 04:13:37;;;;;;;;;;;;;;;-1.11;62.74;99538.39;1739298;81;20473;-72
2021/03/23 04:16:04;;;;;;;;;;;;;;;-1.11;62.58;99540.98;1719468;83;20224;-70
2021/03/23 04:18:34;;;;;;;;;;;;;;;-1.15;62.41;99536.41;1744264;81;20452;-71
2021/03/23 04:21:02;;;;;;;;;;;;;;;-1.19;62.42;99539.57;1755009;81;20239;-70
2021/03/23 04:23:37;;;;;;;;;;;;;;;-1.21;62.44;99539.27;1744269;81;20225;-70
2021/03/23 04:26:06;;;;;;;;;;;;;;;-1.23;62.36;99544.52;1731101;81;20513;-71
2021/03/23 04:28:33;;;;;;;;;;;;;;;-1.25;62.23;99551.52;1728884;81;20496;-71
2021/03/23 04:31:00;;;;;;;;;;;;;;;-1.25;62.26;99553.27;1749086;81;21903;-70
2021/03/23 04:33:28;;;;;;;;;;;;;;;-1.26;62.27;99554.16;1745429;81;20784;-71
2021/03/23 04:35:57;;;;;;;;;;;;;;;-1.26;62.25;99556.75;1754080;81;20248;-71
2021/03/23 04:38:27;;;;;;;;;;;;;;;-1.25;62.23;99561.05;1789540;79;20451;-71
2021/03/23 04:40:55;;;;;;;;;;;;;;;-1.26;62.19;99557.58;1787634;79;20236;-71
2021/03/23 04:43:31;;;;;;;;;;;;;;;-1.23;62.09;99557.92;1805856;79;21891;-71
2021/03/23 04:45:59;;;;;;;;;;;;;;;-1.23;61.80;99553.59;1778024;80;20743;-70
2021/03/23 04:48:26;;;;;;;;;;;;;;;-1.21;61.38;99562.58;1788156;79;20220;-70
2021/03/23 04:50:55;;;;;;;;;;;;;;;-1.21;61.43;99556.10;1805953;79;20280;-70
2021/03/23 04:53:25;;;;;;;;;;;;;;;-1.17;61.29;99558.93;1801894;79;20250;-70
2021/03/23 04:55:53;;;;;;;;;;;;;;;-1.14;60.99;99571.77;1802081;79;21640;-70
2021/03/23 04:58:20;;;;;;;;;;;;;;;-1.12;60.67;99557.45;1807798;79;20224;-70
2021/03/23 05:00:47;;;;;;;;;;;;;;;-1.08;60.51;99564.16;1811091;79;20216;-71
2021/03/23 05:03:17;;;;;;;;;;;;;;;-1.06;60.26;99568.81;1791596;79;20916;-71
2021/03/23 05:05:46;;;;;;;;;;;;;;;-1.04;60.00;99563.13;1802455;79;20582;-71
2021/03/23 05:08:13;;;;;;;;;;;;;;;-1.02;59.70;99576.40;1812155;79;22988;-71
2021/03/23 05:10:40;;;;;;;;;;;;;;;-1.00;59.41;99575.03;1784379;79;20239;-71
2021/03/23 05:13:08;;;;;;;;;;;;;;;-0.99;59.23;99574.95;1769521;81;20477;-71
2021/03/23 05:15:37;;;;;;;;;;;;;;;-0.97;59.20;99577.48;1800087;79;20220;-71
2021/03/23 05:18:05;;;;;;;;;;;;;;;-0.96;58.84;99572.25;1779342;80;20406;-70
2021/03/23 05:20:32;;;;;;;;;;;;;;;-0.94;58.66;99582.55;1781754;80;22521;-70
2021/03/23 05:22:59;;;;;;;;;;;;;;;-0.92;58.53;99571.19;1789296;80;21495;-70
2021/03/23 05:25:26;;;;;;;;;;;;;;;-0.88;58.56;99575.31;1789004;80;20211;-70
2021/03/23 05:27:53;;;;;;;;;;;;;;;-0.84;58.25;99576.03;1784340;80;20454;-71
2021/03/23 05:30:21;;;;;;;;;;;;;;;-0.79;57.65;99583.13;1777620;80;20259;-70
2021/03/23 05:32:48;;;;;;;;;;;;;;;-0.77;57.73;99576.57;1769246;80;22369;-71
2021/03/23 05:35:17;;;;;;;;;;;;;;;-0.75;57.51;99586.44;1786956;80;21435;-70
2021/03/23 05:37:47;;;;;;;;;;;;;;;-0.70;57.43;99583.16;1751987;79;20243;-71
2021/03/23 05:40:19;;;;;;;;;;;;;;;-0.66;57.55;99579.54;1733253;82;20250;-71
2021/03/23 05:42:49;;;;;;;;;;;;;;;-0.59;57.60;99583.51;1733814;82;20219;-71
2021/03/23 05:45:29;;;;;;;;;;;;;;;-0.53;57.30;99580.64;1749563;81;21896;-71
2021/03/23 05:48:18;;;;;;;;;;;;;;;-0.46;57.13;99578.61;1741169;81;20482;-71
2021/03/23 05:51:13;;;;;;;;;;;;;;;-0.42;56.70;99578.84;1762213;81;20399;-71
2021/03/23 05:53:46;;;;;;;;;;;;;;;-0.38;55.99;99585.58;1749463;81;20478;-71
2021/03/23 05:56:13;;;;;;;;;;;;;;;-0.35;56.10;99582.83;1760594;81;20237;-71
2021/03/23 05:58:41;;;;;;;;;;;;;;;-0.31;56.03;99576.11;1763454;81;22117;-71
2021/03/23 06:01:19;;;;;;;;;;;;;;;-0.23;55.82;99581.41;1750730;81;21071;-71
2021/03/23 06:03:51;;;;;;;;;;;;;;;-0.17;55.14;99581.95;1750910;81;20246;-71
2021/03/23 06:06:43;;;;;;;;;;;;;;;-0.15;54.85;99576.69;1743619;81;20452;-70
2021/03/23 06:09:15;;;;;;;;;;;;;;;-0.10;54.84;99584.63;1772628;80;20491;-71
2021/03/23 06:11:46;;;;;;;;;;;;;;;-0.02;54.77;99577.77;1764097;81;22136;-73
2021/03/23 06:14:34;;;;;;;;;;;;;;;0.01;54.65;99583.29;1744642;81;20368;-72
2021/03/23 06:17:05;;;;;;;;;;;;;;;0.05;54.84;99584.80;1754359;81;20233;-71
2021/03/23 06:19:45;;;;;;;;;;;;;;;0.11;54.46;99582.77;1762106;81;21354;-72
2021/03/23 06:22:23;;;;;;;;;;;;;;;0.15;54.15;99588.63;1750515;81;20222;-71
2021/03/23 06:25:00;;;;;;;;;;;;;;;0.17;53.94;99584.20;1757557;81;22565;-71
2021/03/23 06:27:53;;;;;;;;;;;;;;;0.19;53.61;99590.15;1753885;81;20384;-71
2021/03/23 06:30:47;;;;;;;;;;;;;;;0.17;53.61;99594.12;1734560;81;20227;-73
2021/03/23 06:33:17;;;;;;;;;;;;;;;0.21;53.17;99597.43;1736197;81;20785;-72
2021/03/23 06:35:48;;;;;;;;;;;;;;;0.23;52.83;99602.92;1741294;81;20537;-71
2021/03/23 06:38:27;;;;;;;;;;;;;;;0.24;52.79;99602.00;1775580;80;22071;-71
2021/03/23 06:41:16;;;;;;;;;;;;;;;0.27;52.55;99601.00;1786721;80;21637;-71
2021/03/23 06:43:49;;;;;;;;;;;;;;;0.27;52.31;99597.95;1770721;80;20266;-70
2021/03/23 06:46:36;;;;;;;;;;;;;;;0.22;51.51;99596.05;1762315;79;21328;-70
2021/03/23 06:49:15;;;;;;;;;;;;;;;0.23;51.96;99601.62;1783039;80;20259;-70
2021/03/23 06:52:05;;;;;;;;;;;;;;;0.25;51.07;99604.14;1775681;81;22082;-71
2021/03/23 06:54:35;;;;;;;;;;;;;;;0.26;50.39;99598.86;1794474;79;20392;-70
2021/03/23 06:57:06;;;;;;;;;;;;;;;0.30;50.95;99602.17;1793667;80;20213;-73
2021/03/23 06:59:50;;;;;;;;;;;;;;;0.40;49.98;99599.50;1792079;80;20307;-72
2021/03/23 07:02:45;;;;;;;;;;;;;;;0.44;50.14;99594.97;1752956;80;20313;-71
2021/03/23 07:05:31;;;;;;;;;;;;;;;0.49;50.72;99591.23;1786507;80;22079;-71
2021/03/23 07:08:14;;;;;;;;;;;;;;;0.63;51.12;99592.28;1792123;80;20235;-73
2021/03/23 07:10:41;;;;;;;;;;;;;;;0.80;50.63;99593.56;1777605;80;20418;-73
2021/03/23 07:13:31;;;;;;;;;;;;;;;0.88;49.54;99594.02;1777309;80;20579;-73
2021/03/23 07:16:16;;;;;;;;;;;;;;;0.92;49.68;99596.82;1779110;80;20227;-71
2021/03/23 07:18:45;;;;;;;;;;;;;;;0.98;49.68;99590.01;1788107;80;21897;-71
2021/03/23 07:21:17;;;;;;;;;;;;;;;1.06;49.88;99593.05;1782968;80;20218;-71
2021/03/23 07:23:44;;;;;;;;;;;;;;;1.17;49.44;99587.73;1785432;80;20226;-71
2021/03/23 07:26:30;;;;;;;;;;;;;;;1.24;48.46;99593.81;1790712;80;20469;-71
2021/03/23 07:29:15;;;;;;;;;;;;;;;1.27;47.68;99591.53;1778193;80;20270;-72
2021/03/23 07:31:49;;;;;;;;;;;;;;;1.29;47.05;99590.98;1770192;80;22070;-71
2021/03/23 07:34:27;;;;;;;;;;;;;;;1.33;47.38;99593.78;1792499;80;20374;-73
2021/03/23 07:37:23;;;;;;;;;;;;;;;1.44;45.58;99603.14;1742074;80;20464;-73
2021/03/23 07:39:59;;;;;;;;;;;;;;;1.50;44.65;99602.81;1747666;80;20911;-72
2021/03/23 07:42:40;;;;;;;;;;;;;;;1.63;44.80;99600.38;1826529;76;20244;-73
2021/03/23 07:45:27;;;;;;;;;;;;;;;1.73;44.60;99597.64;1789717;79;20220;-71
2021/03/23 07:47:59;;;;;;;;;;;;;;;1.75;43.53;99604.92;1795669;77;22135;-70
2021/03/23 07:50:32;;;;;;;;;;;;;;;1.78;43.63;99596.94;1799307;79;20277;-73
2021/03/23 07:53:06;;;;;;;;;;;;;;;1.83;43.54;99600.11;1792884;78;20214;-72
2021/03/23 07:55:34;;;;;;;;;;;;;;;1.84;42.79;99592.70;1791517;79;20210;-72
2021/03/23 07:58:37;;;;;;;;;;;;;;;1.90;41.99;99591.50;1755172;80;20233;-72
2021/03/23 08:01:33;;;;;;;;;;;;;;;1.95;41.97;99581.21;1755603;81;23607;-72
2021/03/23 08:04:11;;;;;;;;;;;;;;;1.99;42.34;99598.80;1751872;81;20371;-72
2021/03/23 08:07:05;;;;;;;;;;;;;;;2.05;42.67;99587.20;1768116;81;20219;-72
2021/03/23 08:09:53;;;;;;;;;;;;;;;2.15;42.19;99589.66;1741625;82;20317;-72
2021/03/23 08:12:43;;;;;;;;;;;;;;;2.09;41.63;99592.60;1721529;83;20215;-76
2021/03/23 08:15:20;;;;;;;;;;;;;;;2.03;41.05;99592.94;1719907;82;22136;-74
2021/03/23 08:18:14;;;;;;;;;;;;;;;2.04;41.52;99598.09;1759576;80;20810;-74
2021/03/23 08:21:01;;;;;;;;;;;;;;;2.08;40.34;99598.73;1774366;79;20485;-73
2021/03/23 08:23:51;;;;;;;;;;;;;;;1.98;41.36;99594.52;1753285;81;21407;-72
2021/03/23 08:26:38;;;;;;;;;;;;;;;2.01;41.46;99586.05;1761089;81;20224;-74
2021/03/23 08:29:29;;;;;;;;;;;;;;;2.16;41.20;99589.56;1765000;79;21417;-73
2021/03/23 08:32:19;;;;;;;;;;;;;;;2.29;40.83;99587.92;1751692;81;20224;-73
2021/03/23 08:34:53;;;;;;;;;;;;;;;2.32;41.15;99581.71;1752431;81;20269;-74
2021/03/23 08:37:31;;;;;;;;;;;;;;;2.33;41.34;99583.85;1755696;79;21117;-75
2021/03/23 08:40:13;;;;;;;;;;;;;;;2.43;41.53;99583.69;1765675;79;20218;-74
2021/03/23 08:42:45;;;;;;;;;;;;;;;2.55;40.80;99567.32;1747196;80;21893;-73
2021/03/23 08:45:30;;;;;;;;;;;;;;;2.54;41.00;99570.86;1746909;81;20514;-74
2021/03/23 08:48:02;;;;;;;;;;;;;;;2.66;39.35;99576.64;1751368;80;20285;-73
2021/03/23 08:50:38;;;;;;;;;;;;;;;2.70;38.99;99574.68;1747712;80;20236;-72
2021/03/23 08:53:25;;;;;;;;;;;;;;;2.73;38.92;99575.36;1763756;80;20410;-74
2021/03/23 08:55:53;;;;;;;;;;;;;;;2.83;39.00;99576.95;1774812;80;22546;-73
2021/03/23 08:58:44;;;;;;;;;;;;;;;2.84;39.04;99571.63;1767835;80;21681;-73
2021/03/23 09:01:38;;;;;;;;;;;;;;;2.80;39.34;99577.98;1775037;80;20211;-74
2021/03/23 09:04:13;;;;;;;;;;;;;;;2.82;37.87;99573.50;1763456;80;20300;-76
2021/03/23 09:06:57;;;;;;;;;;;;;;;2.92;37.93;99579.47;1764445;79;20295;-76
2021/03/23 09:09:30;;;;;;;;;;;;;;;2.95;38.45;99581.41;1762498;81;22300;-74
2021/03/23 09:12:02;;;;;;;;;;;;;;;2.97;37.46;99571.72;1758705;79;20362;-74
2021/03/23 09:14:31;;;;;;;;;;;;;;;2.90;38.10;99569.13;1770165;81;20521;-74
2021/03/23 09:17:03;;;;;;;;;;;;;;;2.84;37.99;99574.70;1760108;81;20282;-74
2021/03/23 09:19:53;;;;;;;;;;;;;;;2.82;38.92;99576.58;1765269;81;20529;-74
2021/03/23 09:22:24;;;;;;;;;;;;;;;2.86;38.59;99572.84;1766215;81;22076;-71
2021/03/23 09:25:12;;;;;;;;;;;;;;;3.06;38.71;99576.84;1757134;81;20358;-71
2021/03/23 09:27:52;;;;;;;;;;;;;;;2.97;37.37;99595.20;1759149;81;20503;-74
2021/03/23 09:30:43;;;;;;;;;;;;;;;2.70;39.33;99593.80;1755499;80;20663;-74
2021/03/23 09:33:17;;;;;;;;;;;;;;;2.41;39.46;99575.94;1762685;80;20245;-75
2021/03/23 09:38:41;;;;;;;;;;;;;;;2.19;38.83;99574.21;1749007;80;20884;-75
2021/03/23 09:41:23;;;;;;;;;;;;;;;2.29;39.67;99563.63;1747461;80;20409;-75
2021/03/23 09:43:51;;;;;;;;;;;;;;;2.53;40.23;99559.59;1714220;81;20255;-73
2021/03/23 09:46:45;;;;;;;;;;;;;;;3.04;38.52;99556.07;1738153;82;20222;-77
2021/03/23 09:49:20;;;;;;;;;;;;;;;3.47;36.63;99557.77;1738094;82;21278;-75
2021/03/23 09:52:05;;;;;;;;;;;;;;;3.59;38.34;99558.31;1759831;81;20382;-76
2021/03/23 09:54:49;;;;;;;;;;;;;;;3.60;37.55;99562.13;1767566;81;20232;-75
2021/03/23 09:57:22;;;;;;;;;;;;;;;3.48;38.60;99569.45;1765646;81;21489;-77
2021/03/23 09:59:53;;;;;;;;;;;;;;;3.34;39.02;99562.46;1742380;81;20244;-83
2021/03/23 10:02:32;;;;;;;;;;;;;;;3.25;38.72;99556.98;1762941;81;22089;-79
2021/03/23 10:05:23;;;;;;;;;;;;;;;3.42;38.97;99558.07;1745776;81;20227;-80
2021/03/23 10:07:52;;;;;;;;;;;;;;;3.67;38.69;99558.20;1752475;81;20171;-71
2021/03/23 10:10:27;;;;;;;;;;;;;;;3.82;37.89;99558.14;1749937;81;20221;-72
2021/03/23 10:13:17;;;;;;;;;;;;;;;3.79;38.42;99563.10;1781810;80;20599;-73
2021/03/23 10:15:45;;;;;;;;;;;;;;;3.60;38.48;99563.91;1774879;80;21907;-72
2021/03/23 10:18:29;;;;;;;;;;;;;;;3.49;39.24;99560.67;1738461;82;20226;-72
2021/03/23 10:21:01;;;;;;;;;;;;;;;3.41;39.24;99559.84;1738332;81;20238;-72
2021/03/23 10:23:29;;;;;;;;;;;;;;;3.32;39.11;99563.50;1738463;81;20257;-73
2021/03/23 10:25:57;;;;;;;;;;;;;;;3.39;40.49;99548.67;1709402;82;20223;-73
2021/03/23 10:28:29;;;;;;;;;;;;;;;3.72;40.41;99545.67;1748329;79;21894;-72
2021/03/23 10:30:59;;;;;;;;;;;;;;;3.96;38.55;99551.57;1799897;79;20823;-72
2021/03/23 10:33:30;;;;;;;;;;;;;;;4.08;38.95;99548.61;1799927;79;20260;-73
2021/03/23 10:36:01;;;;;;;;;;;;;;;4.31;39.40;99545.30;1799941;79;20323;-73
2021/03/23 10:38:33;;;;;;;;;;;;;;;4.54;38.61;99539.38;1793795;79;20215;-73
2021/03/23 10:41:20;;;;;;;;;;;;;;;4.79;37.46;99533.77;1768370;79;22028;-73
2021/03/23 10:43:52;;;;;;;;;;;;;;;4.90;35.94;99535.16;1768949;79;20682;-72
2021/03/23 10:46:40;;;;;;;;;;;;;;;4.86;36.33;99537.64;1768834;81;20384;-72
2021/03/23 10:49:27;;;;;;;;;;;;;;;5.04;36.86;99539.45;1767097;81;21117;-72
2021/03/23 10:51:57;;;;;;;;;;;;;;;5.33;36.24;99543.95;1734330;82;20218;-71
2021/03/23 10:54:28;;;;;;;;;;;;;;;5.07;37.33;99542.69;1743288;81;23278;-71
2021/03/23 10:56:59;;;;;;;;;;;;;;;4.63;37.33;99554.05;1759672;81;20294;-72
2021/03/23 10:59:29;;;;;;;;;;;;;;;4.15;38.01;99550.73;1749090;81;20269;-72
2021/03/23 11:02:19;;;;;;;;;;;;;;;3.68;38.10;99541.59;1764065;81;20240;-72
2021/03/23 11:05:10;;;;;;;;;;;;;;;3.33;39.37;99543.83;1770220;81;20256;-72
2021/03/23 11:07:58;;;;;;;;;;;;;;;3.35;40.92;99542.42;1770333;80;20477;-72
2021/03/23 11:10:26;;;;;;;;;;;;;;;3.76;40.58;99543.69;1770291;81;20384;-70
2021/03/23 11:12:54;;;;;;;;;;;;;;;4.17;40.38;99542.31;1770371;81;20494;-71
2021/03/23 11:15:21;;;;;;;;;;;;;;;4.66;38.92;99538.17;1753974;81;20285;-71
2021/03/23 11:17:51;;;;;;;;;;;;;;;4.94;39.15;99542.34;1739807;82;20239;-71
2021/03/23 11:20:27;;;;;;;;;;;;;;;5.01;39.09;99548.81;1739737;82;20432;-71
2021/03/23 11:22:56;;;;;;;;;;;;;;;4.83;37.33;99550.47;1743918;81;20387;-71
2021/03/23 11:25:25;;;;;;;;;;;;;;;4.25;38.38;99545.73;1703017;82;20218;-75
2021/03/23 11:27:53;;;;;;;;;;;;;;;3.65;40.35;99530.48;1759561;81;20240;-71
2021/03/23 11:30:21;;;;;;;;;;;;;;;3.15;40.54;99531.45;1741127;81;20230;-71
2021/03/23 11:32:49;;;;;;;;;;;;;;;2.86;41.67;99527.20;1705338;83;22592;-71
2021/03/23 11:35:18;;;;;;;;;;;;;;;2.94;41.63;99523.66;1722492;82;21318;-71
2021/03/23 11:37:45;;;;;;;;;;;;;;;3.36;41.98;99514.07;1720499;82;20297;-75
2021/03/23 11:40:13;;;;;;;;;;;;;;;3.98;41.07;99520.47;1702662;84;21256;-71
2021/03/23 11:42:43;;;;;;;;;;;;;;;4.68;38.29;99521.42;1735093;80;20221;-72
2021/03/23 11:45:17;;;;;;;;;;;;;;;5.17;37.27;99519.31;1766627;79;22961;-71
2021/03/23 11:47:46;;;;;;;;;;;;;;;5.66;36.22;99517.94;1745124;79;20345;-76
2021/03/23 11:50:21;;;;;;;;;;;;;;;6.02;35.31;99509.67;1781919;80;20476;-73
2021/03/23 11:52:49;;;;;;;;;;;;;;;6.16;33.66;99510.78;1760854;80;20665;-72
2021/03/23 11:55:22;;;;;;;;;;;;;;;5.86;34.09;99511.24;1746146;81;20224;-72
2021/03/23 11:57:50;;;;;;;;;;;;;;;5.60;35.07;99522.34;1730288;81;22086;-73
2021/03/23 12:00:18;;;;;;;;;;;;;;;5.27;34.60;99526.88;1725308;83;20368;-71
2021/03/23 12:02:46;;;;;;;;;;;;;;;4.79;35.46;99527.22;1747206;82;20276;-72
2021/03/23 12:05:16;;;;;;;;;;;;;;;4.33;36.76;99527.73;1760111;81;20309;-72
2021/03/23 12:08:12;;;;;;;;;;;;;;;4.01;37.86;99532.49;1746596;81;20230;-72
2021/03/23 12:10:43;;;;;;;;;;;;;;;3.85;38.65;99535.73;1743282;81;23563;-71
2021/03/23 12:13:17;;;;;;;;;;;;;;;3.78;41.09;99536.62;1736525;81;20454;-75
2021/03/23 12:15:48;;;;;;;;;;;;;;;3.72;41.97;99535.70;1735971;82;20290;-74
2021/03/23 12:18:18;;;;;;;;;;;;;;;3.86;42.96;99539.58;1709436;82;20561;-74
2021/03/23 12:20:55;;;;;;;;;;;;;;;4.38;43.52;99530.89;1736010;82;20302;-73
2021/03/23 12:23:17;;;;;;;;;;;;;;;5.00;41.85;99521.80;1742265;81;22078;-73
2021/03/23 12:25:44;;;;;;;;;;;;;;;5.34;41.11;99537.29;1738898;81;20667;-72
2021/03/23 12:28:12;;;;;;;;;;;;;;;5.31;39.67;99546.69;1743591;81;20274;-73
2021/03/23 12:30:39;;;;;;;;;;;;;;;4.99;39.36;99533.22;1743205;81;20474;-73
2021/03/23 12:33:06;;;;;;;;;;;;;;;4.86;40.52;99529.79;1743798;81;20248;-76
2021/03/23 12:35:34;;;;;;;;;;;;;;;5.33;40.99;99533.48;1745375;81;23076;-74
2021/03/23 12:38:03;;;;;;;;;;;;;;;5.64;39.45;99537.34;1746840;81;20381;-72
2021/03/23 12:40:31;;;;;;;;;;;;;;;5.39;40.25;99545.64;1757871;79;20226;-74
2021/03/23 12:43:00;;;;;;;;;;;;;;;4.89;41.54;99546.58;1759505;79;20470;-74
2021/03/23 12:45:33;;;;;;;;;;;;;;;4.22;42.95;99562.91;1751255;80;20506;-74
2021/03/23 12:48:00;;;;;;;;;;;;;;;3.83;48.12;99568.95;1748044;81;22069;-74
2021/03/23 12:50:27;;;;;;;;;;;;;;;3.35;50.61;99568.52;1759929;81;20659;-74
2021/03/23 12:52:56;;;;;;;;;;;;;;;2.96;51.51;99563.98;1754540;81;20330;-74
2021/03/23 12:55:26;;;;;;;;;;;;;;;3.05;52.85;99562.96;1748420;81;21316;-75
2021/03/23 12:57:57;;;;;;;;;;;;;;;3.29;52.21;99554.09;1755432;81;20266;-74
2021/03/23 13:00:28;;;;;;;;;;;;;;;3.67;49.32;99546.92;1738657;81;23191;-74
2021/03/23 13:02:56;;;;;;;;;;;;;;;3.90;50.15;99545.42;1748085;81;20373;-75
2021/03/23 13:05:24;;;;;;;;;;;;;;;4.32;47.65;99545.67;1743678;81;20268;-74
2021/03/23 13:07:52;;;;;;;;;;;;;;;4.51;47.00;99546.10;1762345;81;20252;-75
2021/03/23 13:10:29;;;;;;;;;;;;;;;4.52;47.80;99543.85;1749868;79;20244;-75
2021/03/23 13:12:59;;;;;;;;;;;;;;;4.79;48.12;99542.45;1772034;79;22071;-75
2021/03/23 13:15:27;;;;;;;;;;;;;;;5.19;45.69;99550.14;1750614;81;20432;-75
2021/03/23 13:17:55;;;;;;;;;;;;;;;5.38;45.90;99537.90;1744744;80;20278;-75
2021/03/23 13:20:24;;;;;;;;;;;;;;;5.60;47.13;99534.59;1741488;81;20699;-75
2021/03/23 13:22:53;;;;;;;;;;;;;;;6.10;47.08;99542.72;1758357;80;20278;-75
2021/03/23 13:25:37;;;;;;;;;;;;;;;6.21;46.09;99540.60;1717700;81;23082;-75